Time;durP1;ratioP1;P1;durP2;ratioP2;P2;SDS_P1;SDS_P2;PMS_P1;PMS_P2;Temp;Humidity;BMP_temperature;BMP_pressure;BME280_temperature;BME280_humidity;BME280_pressure;Samples;Min_cycle;Max_cycle;Signal;HPM_P1;HPM_P2
2022/08/02 00:01:31;;;;;;;4.50;1.10;;;;;;;19.33;82.18;100366.48;107368;1268;22609;-80
2022/08/02 00:04:02;;;;;;;5.20;1.00;;;;;;;19.31;82.11;100366.49;107459;1268;22547;-80
2022/08/02 00:06:34;;;;;;;4.40;1.10;;;;;;;19.29;82.05;100366.33;107359;1269;22664;-79
2022/08/02 00:09:06;;;;;;;4.40;1.20;;;;;;;19.29;81.94;100366.63;107376;1269;22606;-80
2022/08/02 00:11:37;;;;;;;3.60;1.00;;;;;;;19.28;82.04;100370.46;107414;1269;22549;-80
2022/08/02 00:14:09;;;;;;;3.60;0.90;;;;;;;19.25;82.10;100371.47;107389;1268;22547;-79
2022/08/02 00:16:40;;;;;;;5.70;1.10;;;;;;;19.24;81.99;100371.16;107633;1269;25299;-79
2022/08/02 00:19:12;;;;;;;5.00;1.20;;;;;;;19.23;81.89;100371.41;107377;1267;22558;-79
2022/08/02 00:21:43;;;;;;;4.40;1.20;;;;;;;19.23;82.05;100372.39;107400;1268;22651;-80
2022/08/02 00:24:14;;;;;;;5.50;1.20;;;;;;;19.21;81.85;100374.30;107377;1268;22713;-79
2022/08/02 00:26:45;;;;;;;3.70;1.10;;;;;;;19.21;81.83;100375.91;107490;1269;23067;-79
2022/08/02 00:29:17;;;;;;;4.70;1.20;;;;;;;19.19;81.81;100379.37;107417;1268;23219;-80
2022/08/02 00:31:48;;;;;;;6.00;1.30;;;;;;;19.18;81.82;100379.96;107451;1268;22525;-80
2022/08/02 00:34:19;;;;;;;6.30;1.00;;;;;;;19.18;81.69;100382.44;107402;1269;22534;-80
2022/08/02 00:36:51;;;;;;;4.90;1.20;;;;;;;19.17;81.77;100384.87;107329;1268;22610;-79
2022/08/02 00:39:22;;;;;;;4.30;1.10;;;;;;;19.14;81.73;100385.59;107424;1268;22614;-79
2022/08/02 00:41:54;;;;;;;3.20;1.10;;;;;;;19.12;81.67;100386.27;107435;1269;23460;-80
2022/08/02 00:44:26;;;;;;;5.00;1.20;;;;;;;19.11;81.76;100387.06;107557;1269;22666;-79
2022/08/02 00:46:58;;;;;;;3.90;1.20;;;;;;;19.09;81.66;100384.66;107344;1267;22578;-79
2022/08/02 00:49:30;;;;;;;4.60;1.20;;;;;;;19.06;81.73;100385.63;107352;1269;22483;-80
2022/08/02 00:52:03;;;;;;;4.50;1.20;;;;;;;19.04;81.76;100388.90;107384;1269;22560;-80
2022/08/02 00:54:34;;;;;;;4.20;1.30;;;;;;;19.02;81.81;100388.41;107492;1270;22688;-80
2022/08/02 00:57:06;;;;;;;3.80;1.10;;;;;;;19.00;81.80;100388.59;107425;1269;23237;-79
2022/08/02 00:59:38;;;;;;;3.60;0.90;;;;;;;18.97;81.95;100387.09;107419;1269;22657;-80
2022/08/02 01:02:10;;;;;;;3.30;1.00;;;;;;;18.93;82.00;100387.70;107750;1268;22836;-79
2022/08/02 01:04:41;;;;;;;3.00;1.00;;;;;;;18.91;81.97;100390.85;107413;1267;22692;-79
2022/08/02 01:07:13;;;;;;;4.20;1.20;;;;;;;18.90;82.03;100392.83;107423;1268;24108;-79
2022/08/02 01:09:46;;;;;;;3.60;1.10;;;;;;;18.87;81.97;100389.56;107408;1269;22570;-80
2022/08/02 01:12:17;;;;;;;4.00;0.90;;;;;;;18.85;82.17;100387.17;107465;1268;22561;-80
2022/08/02 01:14:51;;;;;;;3.20;1.10;;;;;;;18.82;82.10;100391.04;107381;1269;22569;-81
2022/08/02 01:17:29;;;;;;;3.60;1.10;;;;;;;18.79;82.29;100389.73;107580;1267;23940;-80
2022/08/02 01:20:22;;;;;;;6.20;1.30;;;;;;;18.74;82.39;100383.09;107454;1269;22569;-79
2022/08/02 01:23:13;;;;;;;4.70;1.10;;;;;;;18.69;82.59;100385.42;107450;1267;25248;-80
2022/08/02 01:26:18;;;;;;;3.20;0.90;;;;;;;18.62;82.88;100385.77;107697;1268;23431;-80
2022/08/02 01:28:54;;;;;;;5.30;1.10;;;;;;;18.52;82.98;100385.88;107792;1267;22571;-80
2022/08/02 01:31:31;;;;;;;4.60;1.20;;;;;;;18.44;83.30;100387.48;107733;1267;22557;-80
2022/08/02 01:34:07;;;;;;;3.90;1.20;;;;;;;18.36;83.39;100390.83;107411;1268;23057;-80
2022/08/02 01:36:44;;;;;;;3.40;1.10;;;;;;;18.32;83.46;100391.19;107793;1269;22658;-80
2022/08/02 01:39:19;;;;;;;5.30;1.30;;;;;;;18.30;83.52;100393.27;107680;1269;22557;-80
2022/08/02 01:41:52;;;;;;;4.40;1.20;;;;;;;18.28;83.46;100398.17;107660;1269;24220;-79
2022/08/02 01:44:25;;;;;;;6.20;1.80;;;;;;;18.28;83.41;100398.79;107485;1268;22538;-79
2022/08/02 01:47:01;;;;;;;4.10;1.30;;;;;;;18.27;83.53;100394.13;107480;1267;25445;-80
2022/08/02 01:49:34;;;;;;;4.00;1.20;;;;;;;18.22;83.63;100393.45;107399;1267;24234;-79
2022/08/02 01:55:01;;;;;;;4.90;1.60;;;;;;;18.09;84.28;100386.99;107423;1267;22578;-79
2022/08/02 01:57:37;;;;;;;5.50;1.30;;;;;;;18.01;84.54;100381.31;107420;1269;22537;-79
2022/08/02 02:00:11;;;;;;;5.60;1.30;;;;;;;17.94;84.67;100383.08;107432;1267;24229;-80
2022/08/02 02:02:47;;;;;;;5.30;1.40;;;;;;;17.86;84.99;100376.77;107478;1269;22551;-79
2022/08/02 02:05:21;;;;;;;4.90;1.10;;;;;;;17.76;85.59;100379.06;107531;1269;22566;-79
2022/08/02 02:07:57;;;;;;;7.00;1.30;;;;;;;17.69;85.29;100379.18;107580;1269;22527;-79
2022/08/02 02:10:32;;;;;;;3.30;1.30;;;;;;;17.65;85.58;100378.95;107436;1268;22522;-79
2022/08/02 02:13:06;;;;;;;6.60;1.50;;;;;;;17.60;85.64;100385.14;107232;1267;22474;-79
2022/08/02 02:15:44;;;;;;;7.50;1.70;;;;;;;17.56;85.73;100389.06;107398;1268;25456;-80
2022/08/02 02:18:23;;;;;;;3.50;1.30;;;;;;;17.53;86.19;100387.35;107517;1269;22475;-79
2022/08/02 02:20:55;;;;;;;5.50;1.40;;;;;;;17.52;86.18;100392.94;107656;1269;22553;-79
2022/08/02 02:23:26;;;;;;;4.50;1.40;;;;;;;17.50;86.19;100393.88;107662;1267;22548;-79
2022/08/02 02:25:58;;;;;;;7.50;1.60;;;;;;;17.49;86.19;100390.04;107448;1267;22611;-79
2022/08/02 02:28:33;;;;;;;5.80;1.70;;;;;;;17.48;86.29;100390.60;107443;1269;22617;-80
2022/08/02 02:31:09;;;;;;;3.60;1.30;;;;;;;17.47;86.43;100390.90;107449;1267;22635;-80
2022/08/02 02:33:46;;;;;;;4.60;1.40;;;;;;;17.46;86.55;100392.02;107454;1267;22528;-79
2022/08/02 02:36:21;;;;;;;5.10;1.70;;;;;;;17.45;86.49;100392.45;107475;1269;24177;-80
2022/08/02 02:38:54;;;;;;;6.20;1.70;;;;;;;17.42;86.77;100396.67;107410;1269;24120;-79
2022/08/02 02:41:26;;;;;;;5.00;1.80;;;;;;;17.40;86.91;100398.52;107501;1267;24330;-80
2022/08/02 02:44:02;;;;;;;5.40;1.60;;;;;;;17.41;86.95;100400.39;107476;1269;22816;-79
2022/08/02 02:46:35;;;;;;;7.40;1.50;;;;;;;17.40;87.10;100397.63;107508;1269;24265;-79
2022/08/02 02:49:07;;;;;;;5.60;1.60;;;;;;;17.40;87.17;100395.52;107745;1269;22555;-79
2022/08/02 02:51:39;;;;;;;7.80;1.70;;;;;;;17.40;87.12;100397.41;107665;1269;22474;-79
2022/08/02 02:54:11;;;;;;;7.40;1.80;;;;;;;17.40;87.65;100403.78;107402;1269;22692;-79
2022/08/02 02:56:45;;;;;;;7.20;1.90;;;;;;;17.38;87.67;100405.94;107546;1269;22479;-79
2022/08/02 02:59:18;;;;;;;7.80;2.20;;;;;;;17.37;87.69;100407.54;107466;1269;22596;-79
2022/08/02 03:01:50;;;;;;;7.00;1.90;;;;;;;17.36;87.63;100405.49;107431;1267;22535;-80
2022/08/02 03:04:24;;;;;;;4.90;1.80;;;;;;;17.34;87.65;100410.44;107539;1267;22617;-79
2022/08/02 03:06:55;;;;;;;5.10;1.60;;;;;;;17.33;87.65;100411.00;107592;1268;22785;-79
2022/08/02 03:09:27;;;;;;;5.80;1.80;;;;;;;17.32;87.61;100405.67;107482;1268;22535;-80
2022/08/02 03:11:58;;;;;;;8.80;1.90;;;;;;;17.30;87.85;100402.91;107497;1269;24222;-79
2022/08/02 03:14:29;;;;;;;5.50;1.70;;;;;;;17.27;88.11;100403.44;107369;1269;25671;-80
2022/08/02 03:17:01;;;;;;;6.90;1.90;;;;;;;17.26;88.04;100405.80;107328;1257;22721;-74
2022/08/02 03:19:32;;;;;;;6.60;2.10;;;;;;;17.24;88.13;100403.05;106410;1268;25382;-76
2022/08/02 03:22:03;;;;;;;5.90;2.00;;;;;;;17.23;88.27;100403.98;106633;1268;22542;-76
2022/08/02 03:24:34;;;;;;;5.10;1.70;;;;;;;17.19;88.38;100404.88;106488;1268;22607;-76
2022/08/02 03:27:05;;;;;;;7.40;2.10;;;;;;;17.17;88.44;100410.02;106409;1268;22531;-76
2022/08/02 03:29:36;;;;;;;8.50;2.30;;;;;;;17.15;88.60;100413.21;106429;1268;25228;-75
2022/08/02 03:32:08;;;;;;;7.20;2.50;;;;;;;17.13;88.65;100415.94;106425;1268;24252;-75
2022/08/02 03:34:39;;;;;;;10.90;2.20;;;;;;;17.12;88.73;100416.23;106444;1268;24257;-75
2022/08/02 03:37:11;;;;;;;8.30;2.10;;;;;;;17.12;88.70;100417.05;106414;1268;22551;-76
2022/08/02 03:39:42;;;;;;;7.30;2.30;;;;;;;17.12;88.85;100418.70;106432;1268;26620;-74
2022/08/02 03:42:16;;;;;;;8.20;2.50;;;;;;;17.11;88.84;100417.53;106576;1268;22587;-75
2022/08/02 03:44:48;;;;;;;7.70;2.50;;;;;;;17.10;88.97;100418.70;106407;1268;22557;-76
2022/08/02 03:47:21;;;;;;;8.70;2.60;;;;;;;17.09;89.09;100423.17;106471;1268;25382;-76
2022/08/02 03:49:53;;;;;;;6.50;2.30;;;;;;;17.08;89.09;100429.63;106403;1268;24307;-76
2022/08/02 03:52:26;;;;;;;6.40;2.60;;;;;;;17.07;89.16;100430.73;106564;1268;24075;-76
2022/08/02 03:54:59;;;;;;;8.90;2.70;;;;;;;17.06;89.22;100430.89;106736;1268;22587;-78
2022/08/02 03:57:30;;;;;;;7.40;2.30;;;;;;;17.05;89.37;100437.14;106735;1268;22571;-77
2022/08/02 04:00:01;;;;;;;7.30;2.50;;;;;;;17.03;89.46;100441.66;106518;1268;22553;-76
2022/08/02 04:02:32;;;;;;;7.60;2.60;;;;;;;17.03;89.55;100446.99;106396;1268;25496;-76
2022/08/02 04:05:04;;;;;;;7.20;2.70;;;;;;;17.03;89.75;100450.33;106373;1268;22525;-76
2022/08/02 04:07:35;;;;;;;9.80;2.50;;;;;;;17.01;89.84;100455.52;106513;1268;22643;-75
2022/08/02 04:10:07;;;;;;;6.80;2.20;;;;;;;16.99;90.04;100457.42;106481;1268;23054;-76
2022/08/02 04:12:38;;;;;;;6.90;2.60;;;;;;;16.99;90.25;100460.30;106816;1268;23381;-77
2022/08/02 04:15:12;;;;;;;6.60;2.60;;;;;;;16.97;90.28;100462.77;106524;1268;24069;-76
2022/08/02 04:17:48;;;;;;;7.20;2.50;;;;;;;16.96;90.26;100467.80;106921;1268;24423;-76
2022/08/02 04:20:22;;;;;;;8.60;3.00;;;;;;;16.95;90.35;100465.13;106465;1268;24249;-76
2022/08/02 04:22:58;;;;;;;7.60;2.60;;;;;;;16.96;90.46;100468.16;106686;1267;23346;-76
2022/08/02 04:25:31;;;;;;;10.50;3.00;;;;;;;16.96;90.69;100471.80;106677;1268;22540;-76
2022/08/02 04:28:03;;;;;;;8.20;2.90;;;;;;;16.94;90.92;100473.45;106492;1268;22571;-76
2022/08/02 04:30:34;;;;;;;10.10;3.10;;;;;;;16.93;90.88;100476.67;106556;1268;22772;-76
2022/08/02 04:33:07;;;;;;;7.60;3.20;;;;;;;16.93;91.16;100479.02;106403;1267;24256;-76
2022/08/02 04:35:38;;;;;;;8.20;3.80;;;;;;;16.93;90.99;100483.74;106458;1268;25383;-76
2022/08/02 04:38:10;;;;;;;9.00;3.00;;;;;;;16.94;91.26;100488.06;106452;1268;22564;-75
2022/08/02 04:40:41;;;;;;;12.70;3.90;;;;;;;16.93;91.47;100488.73;106479;1268;25262;-76
2022/08/02 04:43:13;;;;;;;11.60;3.90;;;;;;;16.93;91.71;100494.52;106426;1267;23240;-76
2022/08/02 04:45:45;;;;;;;10.30;3.40;;;;;;;16.93;91.90;100494.77;106394;1268;23095;-75
2022/08/02 04:48:16;;;;;;;9.50;4.10;;;;;;;16.93;91.74;100493.84;106595;1268;22530;-76
2022/08/02 04:50:48;;;;;;;11.10;4.20;;;;;;;16.93;92.10;100496.00;106465;1268;22571;-76
2022/08/02 04:53:19;;;;;;;10.10;3.80;;;;;;;16.94;92.06;100495.84;106548;1268;22624;-76
2022/08/02 04:55:50;;;;;;;9.40;3.50;;;;;;;16.96;92.07;100498.77;106581;1268;22815;-76
2022/08/02 04:58:21;;;;;;;15.10;4.80;;;;;;;16.97;92.23;100503.11;106453;1268;23247;-76
2022/08/02 05:00:52;;;;;;;9.90;3.50;;;;;;;16.98;92.04;100503.54;106413;1268;22617;-76
2022/08/02 05:03:23;;;;;;;10.70;4.00;;;;;;;16.99;92.28;100508.19;106428;1267;22533;-76
2022/08/02 05:05:54;;;;;;;9.50;4.10;;;;;;;17.02;92.38;100510.39;106482;1268;24268;-76
2022/08/02 05:08:26;;;;;;;10.50;4.10;;;;;;;17.04;92.47;100510.44;106447;1268;25404;-76
2022/08/02 05:10:57;;;;;;;10.60;4.10;;;;;;;17.08;92.74;100509.04;106416;1268;25306;-76
2022/08/02 05:13:29;;;;;;;10.60;4.40;;;;;;;17.13;92.99;100513.64;106416;1268;22529;-76
2022/08/02 05:16:02;;;;;;;15.10;4.50;;;;;;;17.19;93.20;100516.44;106411;1268;22550;-76
2022/08/02 05:18:33;;;;;;;12.10;4.50;;;;;;;17.24;93.26;100520.89;106439;1268;22684;-76
2022/08/02 05:21:04;;;;;;;10.90;4.80;;;;;;;17.28;93.30;100521.08;106446;1268;25336;-76
2022/08/02 05:23:35;;;;;;;10.40;4.60;;;;;;;17.33;93.29;100526.55;106410;1268;24276;-75
2022/08/02 05:26:07;;;;;;;10.50;5.10;;;;;;;17.38;93.36;100526.98;106426;1268;22544;-76
2022/08/02 05:28:38;;;;;;;12.70;4.30;;;;;;;17.45;93.53;100531.06;106407;1268;25393;-76
2022/08/02 05:31:09;;;;;;;11.30;4.40;;;;;;;17.55;93.57;100531.35;106395;1268;24317;-76
2022/08/02 05:33:40;;;;;;;10.60;4.40;;;;;;;17.64;93.69;100533.45;106514;1268;24363;-76
2022/08/02 05:36:11;;;;;;;9.70;3.70;;;;;;;17.70;93.27;100532.87;106462;1268;22557;-76
2022/08/02 05:38:45;;;;;;;10.40;4.20;;;;;;;17.75;93.05;100535.25;106410;1268;23240;-77
2022/08/02 05:41:16;;;;;;;9.00;4.20;;;;;;;17.84;93.20;100537.77;106476;1268;24355;-76
2022/08/02 05:43:48;;;;;;;10.10;3.80;;;;;;;17.92;93.06;100542.75;106438;1268;22642;-76
2022/08/02 05:46:20;;;;;;;7.90;3.90;;;;;;;17.98;92.80;100541.80;106496;1268;23210;-76
2022/08/02 05:48:51;;;;;;;8.10;3.20;;;;;;;18.04;92.83;100538.41;106433;1267;22593;-76
2022/08/02 05:51:28;;;;;;;9.40;3.90;;;;;;;18.09;92.78;100542.04;106477;1268;25237;-76
2022/08/02 05:54:10;;;;;;;9.60;3.60;;;;;;;18.16;92.73;100545.92;106501;1268;26621;-76
2022/08/02 05:56:51;;;;;;;7.70;3.40;;;;;;;18.23;92.33;100548.87;106524;1268;22550;-75
2022/08/02 05:59:36;;;;;;;11.10;4.00;;;;;;;18.28;92.42;100549.85;106460;1268;24365;-76
2022/08/02 06:02:23;;;;;;;9.70;4.10;;;;;;;18.37;92.39;100552.56;106484;1267;22532;-77
2022/08/02 06:05:03;;;;;;;12.20;3.40;;;;;;;18.45;92.27;100557.88;106457;1268;25334;-78
2022/08/02 06:07:37;;;;;;;10.80;4.00;;;;;;;18.54;92.09;100563.30;106440;1268;22541;-77
2022/08/02 06:10:13;;;;;;;12.30;3.70;;;;;;;18.62;91.91;100564.16;107099;1267;22595;-76
2022/08/02 06:12:49;;;;;;;14.10;3.90;;;;;;;18.69;91.46;100565.39;107066;1267;23216;-76
2022/08/02 06:15:21;;;;;;;12.40;3.90;;;;;;;18.73;91.29;100563.80;106806;1268;24249;-76
2022/08/02 06:17:55;;;;;;;9.80;3.90;;;;;;;18.80;91.36;100563.64;106619;1268;22618;-76
2022/08/02 06:20:34;;;;;;;10.30;3.90;;;;;;;18.89;91.03;100565.30;106532;1268;22750;-76
2022/08/02 06:23:07;;;;;;;9.00;3.30;;;;;;;18.98;90.95;100566.60;106482;1268;25295;-76
2022/08/02 06:25:43;;;;;;;12.90;3.90;;;;;;;19.04;90.54;100573.13;106523;1268;23060;-76
2022/08/02 06:28:19;;;;;;;11.80;3.90;;;;;;;19.13;90.53;100574.57;106430;1267;24459;-76
2022/08/02 06:30:50;;;;;;;8.10;3.30;;;;;;;19.22;90.16;100574.89;106535;1268;25346;-76
2022/08/02 06:33:21;;;;;;;7.60;3.00;;;;;;;19.33;90.08;100575.15;106467;1268;22820;-76
2022/08/02 06:36:00;;;;;;;9.90;2.50;;;;;;;19.43;89.90;100575.20;106564;1268;24401;-76
2022/08/02 06:38:40;;;;;;;10.00;3.10;;;;;;;19.54;89.47;100581.14;106448;1268;24307;-76
2022/08/02 06:41:13;;;;;;;10.10;3.60;;;;;;;19.63;88.72;100579.79;106406;1268;22591;-76
2022/08/02 06:43:51;;;;;;;10.00;2.90;;;;;;;19.73;88.80;100577.56;106426;1268;22698;-76
2022/08/02 06:46:22;;;;;;;9.10;2.70;;;;;;;19.86;88.65;100580.17;106460;1268;22670;-76
2022/08/02 06:48:54;;;;;;;7.00;2.40;;;;;;;19.95;87.68;100582.26;106480;1268;25353;-76
2022/08/02 06:51:26;;;;;;;7.70;2.40;;;;;;;20.01;87.28;100581.24;106461;1268;25613;-76
2022/08/02 06:53:57;;;;;;;8.80;2.30;;;;;;;20.06;86.40;100581.32;106446;1268;24229;-76
2022/08/02 06:56:28;;;;;;;7.40;2.70;;;;;;;20.10;86.16;100577.14;106511;1267;22535;-76
2022/08/02 06:59:00;;;;;;;6.80;2.50;;;;;;;20.20;86.47;100583.91;106418;1268;22859;-76
2022/08/02 07:01:31;;;;;;;7.80;2.10;;;;;;;20.30;86.29;100584.91;106587;1268;24431;-76
2022/08/02 07:04:02;;;;;;;7.40;2.00;;;;;;;20.41;85.89;100591.40;106426;1268;25392;-76
2022/08/02 07:06:33;;;;;;;7.10;2.30;;;;;;;20.52;85.78;100592.62;106553;1267;22850;-76
2022/08/02 07:09:05;;;;;;;7.80;2.20;;;;;;;20.58;84.45;100590.34;106409;1268;22544;-75
2022/08/02 07:11:36;;;;;;;6.30;2.00;;;;;;;20.63;84.30;100592.48;106474;1268;22530;-76
2022/08/02 07:14:08;;;;;;;7.80;1.90;;;;;;;20.72;83.90;100591.61;106408;1268;26926;-76
2022/08/02 07:16:39;;;;;;;7.30;2.20;;;;;;;20.84;83.77;100590.64;106420;1268;24311;-76
2022/08/02 07:19:10;;;;;;;7.00;2.00;;;;;;;20.90;82.61;100586.96;106443;1268;23274;-76
2022/08/02 07:21:42;;;;;;;8.30;2.10;;;;;;;20.93;82.33;100588.56;106468;1267;22541;-76
2022/08/02 07:24:13;;;;;;;9.30;2.00;;;;;;;20.96;81.84;100589.10;106447;1268;25546;-75
2022/08/02 07:26:44;;;;;;;7.70;2.20;;;;;;;21.01;81.34;100585.60;106499;1268;25691;-76
2022/08/02 07:29:15;;;;;;;8.50;2.20;;;;;;;21.05;81.09;100581.90;106484;1268;22851;-76
2022/08/02 07:31:46;;;;;;;5.50;2.00;;;;;;;21.12;81.11;100578.55;106446;1269;22586;-76
2022/08/02 07:34:17;;;;;;;4.40;1.70;;;;;;;21.22;81.04;100578.26;106486;1268;22525;-76
2022/08/02 07:36:49;;;;;;;13.50;1.90;;;;;;;21.29;79.69;100580.81;106416;1268;22570;-77
2022/08/02 07:39:20;;;;;;;6.50;1.40;;;;;;;21.36;79.72;100577.48;106529;1268;22676;-76
2022/08/02 07:41:51;;;;;;;4.50;1.50;;;;;;;21.41;78.84;100574.08;106419;1268;24267;-76
2022/08/02 07:44:22;;;;;;;4.20;1.40;;;;;;;21.45;77.96;100581.33;106476;1268;24242;-75
2022/08/02 07:46:53;;;;;;;5.80;1.60;;;;;;;21.43;77.56;100582.77;106452;1268;22614;-76
2022/08/02 07:49:25;;;;;;;8.90;1.50;;;;;;;21.45;77.64;100578.67;106493;1268;24524;-76
2022/08/02 07:51:56;;;;;;;6.50;1.40;;;;;;;21.48;76.80;100576.70;106422;1267;22596;-76
2022/08/02 07:54:28;;;;;;;5.10;1.50;;;;;;;21.53;76.73;100577.60;106540;1268;25549;-76
2022/08/02 07:56:59;;;;;;;3.80;1.10;;;;;;;21.61;76.46;100576.70;106424;1268;22598;-77
2022/08/02 07:59:32;;;;;;;5.30;1.40;;;;;;;21.71;76.68;100573.23;106443;1268;22791;-76
2022/08/02 08:02:03;;;;;;;4.70;1.20;;;;;;;21.80;75.49;100573.23;106507;1268;24435;-76
2022/08/02 08:04:35;;;;;;;7.40;1.40;;;;;;;21.85;75.06;100576.13;106467;1268;23505;-77
2022/08/02 08:07:09;;;;;;;3.80;1.10;;;;;;;21.86;74.00;100573.27;106405;1268;24255;-77
2022/08/02 08:09:41;;;;;;;5.40;1.10;;;;;;;21.87;73.84;100577.33;106815;1268;23229;-77
2022/08/02 08:12:15;;;;;;;5.70;1.20;;;;;;;21.88;72.96;100576.01;106838;1268;25237;-77
2022/08/02 08:14:46;;;;;;;4.40;1.20;;;;;;;21.92;72.63;100581.65;106731;1268;22548;-77
2022/08/02 08:17:18;;;;;;;3.90;1.10;;;;;;;21.95;71.93;100585.56;106415;1268;25466;-76
2022/08/02 08:19:49;;;;;;;7.70;0.80;;;;;;;21.99;71.23;100586.98;106421;1267;22548;-76
2022/08/02 08:22:20;;;;;;;4.10;0.90;;;;;;;22.03;71.33;100586.41;106465;1268;22633;-76
2022/08/02 08:24:54;;;;;;;3.80;0.90;;;;;;;22.09;71.04;100591.46;106410;1268;22527;-76
2022/08/02 08:27:26;;;;;;;5.60;0.80;;;;;;;22.12;70.27;100591.24;106418;1268;24766;-77
2022/08/02 08:29:58;;;;;;;2.80;0.90;;;;;;;22.15;69.81;100591.95;106384;1268;24511;-75
2022/08/02 08:32:29;;;;;;;4.50;0.80;;;;;;;22.09;69.48;100593.63;106977;1268;22537;-78
2022/08/02 08:35:02;;;;;;;3.70;0.90;;;;;;;22.09;69.39;100595.17;108647;1267;25254;-78
2022/08/02 08:37:37;;;;;;;2.70;0.90;;;;;;;22.12;68.43;100596.30;106754;1268;25333;-78
2022/08/02 08:40:10;;;;;;;4.20;0.70;;;;;;;22.12;67.64;100600.98;106492;1268;22552;-77
2022/08/02 08:42:42;;;;;;;5.20;0.60;;;;;;;22.14;67.08;100603.04;106614;1268;22619;-77
2022/08/02 08:45:16;;;;;;;3.90;0.60;;;;;;;22.16;66.36;100599.16;106462;1268;22548;-77
2022/08/02 08:47:56;;;;;;;3.90;0.80;;;;;;;22.11;65.95;100605.42;106652;1268;22546;-78
2022/08/02 08:50:31;;;;;;;2.70;0.80;;;;;;;22.03;66.61;100600.23;106504;1268;24224;-77
2022/08/02 08:53:06;;;;;;;2.90;0.70;;;;;;;22.05;66.75;100606.23;106743;1268;26020;-77
2022/08/02 08:55:38;;;;;;;4.90;0.80;;;;;;;22.11;65.85;100602.43;106644;1268;22804;-77
2022/08/02 08:58:09;;;;;;;3.60;0.70;;;;;;;22.22;65.96;100605.75;106471;1268;22557;-78
2022/08/02 09:00:41;;;;;;;5.40;0.70;;;;;;;22.31;65.76;100604.91;106564;1268;25319;-78
2022/08/02 09:03:13;;;;;;;2.50;0.70;;;;;;;22.41;65.13;100603.58;106592;1268;22597;-77
2022/08/02 09:05:45;;;;;;;2.60;0.70;;;;;;;22.50;64.82;100602.95;106692;1267;24223;-78
2022/08/02 09:08:18;;;;;;;1.30;0.50;;;;;;;22.62;64.74;100601.67;106656;1268;24253;-78
2022/08/02 09:10:49;;;;;;;2.60;0.60;;;;;;;22.73;63.07;100600.92;106730;1267;24078;-78
2022/08/02 09:13:28;;;;;;;1.20;0.50;;;;;;;22.82;63.04;100600.69;106691;1268;23344;-78
2022/08/02 09:16:02;;;;;;;2.10;0.40;;;;;;;22.89;62.67;100597.98;107172;1262;22521;-77
2022/08/02 09:18:36;;;;;;;1.00;0.40;;;;;;;22.98;61.88;100595.33;107443;1266;22541;-78
2022/08/02 09:21:09;;;;;;;3.50;0.50;;;;;;;23.04;62.29;100604.38;107508;1267;25239;-78
2022/08/02 09:23:42;;;;;;;0.90;0.30;;;;;;;23.09;62.29;100601.29;107467;1267;24243;-78
2022/08/02 09:26:16;;;;;;;3.40;0.50;;;;;;;23.14;62.03;100602.65;107481;1267;24368;-78
2022/08/02 09:28:50;;;;;;;1.90;0.40;;;;;;;23.14;61.35;100605.86;107376;1268;22528;-78
2022/08/02 09:31:23;;;;;;;1.00;0.30;;;;;;;23.15;59.43;100607.22;107493;1267;22692;-79
2022/08/02 09:33:56;;;;;;;0.60;0.20;;;;;;;23.10;58.78;100606.16;107503;1268;25244;-79
2022/08/02 09:36:37;;;;;;;1.30;0.30;;;;;;;23.05;59.48;100601.54;107473;1267;22571;-79
2022/08/02 09:39:11;;;;;;;2.00;0.50;;;;;;;23.06;58.92;100604.77;107347;1267;24494;-78
2022/08/02 09:41:44;;;;;;;4.10;0.60;;;;;;;23.08;59.84;100606.21;107410;1268;24240;-78
2022/08/02 09:44:16;;;;;;;1.80;0.50;;;;;;;23.12;59.54;100601.59;107385;1268;23322;-79
2022/08/02 09:46:48;;;;;;;3.00;0.30;;;;;;;23.13;59.17;100597.05;107368;1269;22578;-80
2022/08/02 09:49:20;;;;;;;1.60;0.30;;;;;;;23.16;58.92;100603.06;107280;1268;22553;-78
2022/08/02 09:51:55;;;;;;;1.00;0.30;;;;;;;23.14;59.16;100602.55;107389;1268;25316;-79
2022/08/02 09:54:35;;;;;;;1.90;0.30;;;;;;;23.19;58.91;100597.62;107375;1267;22567;-79
2022/08/02 09:57:08;;;;;;;2.20;0.30;;;;;;;23.22;58.03;100596.34;107261;1267;22555;-79
2022/08/02 09:59:52;;;;;;;0.70;0.20;;;;;;;23.25;56.22;100598.83;107387;1268;22547;-78
2022/08/02 10:02:23;;;;;;;1.50;0.30;;;;;;;23.30;56.40;100598.86;107368;1267;22573;-79
2022/08/02 10:04:55;;;;;;;2.50;0.30;;;;;;;23.30;56.79;100597.96;103578;1267;5431099;-78
2022/08/02 10:07:27;;;;;;;2.60;0.30;;;;;;;23.36;56.17;100592.52;107667;1268;22547;-80
2022/08/02 10:09:59;;;;;;;1.60;0.30;;;;;;;23.45;56.38;100597.81;107388;1267;25365;-78
2022/08/02 10:12:30;;;;;;;2.00;0.40;;;;;;;23.51;54.89;100591.51;107362;1267;22471;-79
2022/08/02 10:15:02;;;;;;;3.20;0.60;;;;;;;23.55;55.89;100589.32;107384;1267;22581;-79
2022/08/02 10:17:35;;;;;;;1.90;0.30;;;;;;;23.66;55.69;100589.39;107348;1267;22616;-80
2022/08/02 10:20:08;;;;;;;2.50;0.30;;;;;;;23.69;54.56;100588.52;107474;1267;22831;-79
2022/08/02 10:22:41;;;;;;;1.60;0.30;;;;;;;23.60;54.10;100595.36;107879;1267;25575;-79
2022/08/02 10:25:13;;;;;;;2.00;0.40;;;;;;;23.49;54.01;100592.83;107603;1267;24406;-79
2022/08/02 10:27:45;;;;;;;2.00;0.40;;;;;;;23.47;53.04;100592.81;107673;1268;24225;-79
2022/08/02 10:30:17;;;;;;;4.00;0.40;;;;;;;23.52;53.89;100591.65;107580;1268;24243;-79
2022/08/02 10:32:52;;;;;;;2.10;0.40;;;;;;;23.63;54.18;100591.77;107357;1268;22528;-79
2022/08/02 10:35:26;;;;;;;3.60;0.50;;;;;;;23.72;52.53;100600.82;107405;1268;22594;-80
2022/08/02 10:38:02;;;;;;;2.20;0.40;;;;;;;23.72;52.58;100600.86;107390;1268;26679;-79
2022/08/02 10:40:50;;;;;;;1.90;0.30;;;;;;;23.73;52.63;100592.27;107395;1268;26501;-79
2022/08/02 10:43:42;;;;;;;1.50;0.20;;;;;;;23.75;52.36;100595.55;107446;1267;22475;-78
2022/08/02 10:46:32;;;;;;;0.90;0.30;;;;;;;23.82;51.96;100596.11;107398;1268;25374;-78
2022/08/02 10:49:10;;;;;;;2.10;0.60;;;;;;;23.84;52.08;100595.52;107331;1268;25381;-78
2022/08/02 10:52:07;;;;;;;1.90;0.20;;;;;;;23.86;51.83;100594.88;107351;1267;22985;-80
2022/08/02 10:54:41;;;;;;;1.20;0.40;;;;;;;23.92;51.87;100596.27;107602;1267;22599;-79
2022/08/02 10:57:26;;;;;;;2.30;0.40;;;;;;;23.96;51.56;100598.27;107714;1265;24410;-79
2022/08/02 11:00:02;;;;;;;3.20;0.40;;;;;;;23.98;51.89;100593.64;107635;1268;22612;-78
2022/08/02 11:02:39;;;;;;;2.60;0.40;;;;;;;24.04;51.63;100598.81;107630;1267;22626;-78
2022/08/02 11:05:17;;;;;;;3.30;0.40;;;;;;;24.10;51.15;100596.68;107500;1268;22708;-80
2022/08/02 11:07:50;;;;;;;2.20;0.40;;;;;;;24.16;51.44;100592.98;107725;1267;22570;-78
2022/08/02 11:10:33;;;;;;;1.50;0.30;;;;;;;24.24;51.53;100585.34;107637;1267;22524;-78
2022/08/02 11:13:10;;;;;;;1.60;0.40;;;;;;;24.35;50.92;100582.71;107341;1267;23978;-77
2022/08/02 11:16:00;;;;;;;2.30;0.30;;;;;;;24.43;50.65;100583.50;107268;1267;24334;-79
2022/08/02 11:19:04;;;;;;;1.80;0.30;;;;;;;24.46;50.84;100588.63;107600;1267;22573;-79
2022/08/02 11:21:37;;;;;;;2.10;0.50;;;;;;;24.43;50.62;100589.85;106420;1276;23200;-79
2022/08/02 11:24:28;;;;;;;1.90;0.40;;;;;;;24.40;49.91;100585.35;106843;1274;22736;-79
2022/08/02 11:27:01;;;;;;;1.30;0.40;;;;;;;24.38;49.84;100584.66;106898;1274;22531;-78
2022/08/02 11:29:38;;;;;;;2.30;0.50;;;;;;;24.38;49.66;100582.72;106983;1273;22643;-79
2022/08/02 11:32:18;;;;;;;1.40;0.40;;;;;;;24.38;49.55;100580.86;106950;1274;22828;-79
2022/08/02 11:34:52;;;;;;;3.10;0.40;;;;;;;24.40;49.08;100572.29;106963;1274;23729;-79
2022/08/02 11:37:35;;;;;;;1.10;0.30;;;;;;;24.44;49.15;100572.68;106835;1274;23335;-79
2022/08/02 11:40:10;;;;;;;1.60;0.40;;;;;;;24.44;48.95;100570.59;107064;1273;22568;-79
2022/08/02 11:42:44;;;;;;;3.30;0.40;;;;;;;24.46;49.13;100569.41;106963;1273;22619;-79
2022/08/02 11:45:18;;;;;;;1.50;0.40;;;;;;;24.48;49.01;100572.55;106943;1274;24433;-79
2022/08/02 11:47:51;;;;;;;2.90;0.30;;;;;;;24.51;48.51;100575.51;106832;1274;25383;-78
2022/08/02 11:50:24;;;;;;;3.30;0.40;;;;;;;24.51;48.41;100572.80;106928;1273;22541;-79